Time;durP1;ratioP1;P1;durP2;ratioP2;P2;SDS_P1;SDS_P2;PMS_P1;PMS_P2;Temp;Humidity;BMP_temperature;BMP_pressure;BME280_temperature;BME280_humidity;BME280_pressure;Samples;Min_cycle;Max_cycle;Signal;HPM_P1;HPM_P2
2022/04/27 00:00:57;;;;;;;15.90;12.50;;;;;;;7.67;84.01;97277.99;109436;1254;68828;-67
2022/04/27 00:03:28;;;;;;;15.00;11.90;;;;;;;7.63;84.13;97273.59;109590;1253;59713;-66
2022/04/27 00:05:58;;;;;;;18.40;15.20;;;;;;;7.60;84.43;97277.57;109588;1251;59709;-69
2022/04/27 00:08:28;;;;;;;17.50;15.60;;;;;;;7.60;83.96;97277.96;109614;1252;70753;-66
2022/04/27 00:10:57;;;;;;;;;;;;;;;7.60;84.27;97276.08;109517;1254;66823;-66
2022/04/27 00:13:27;;;;;;;18.70;14.50;;;;;;;7.59;84.72;97276.95;109688;1251;69577;-67
2022/04/27 00:15:57;;;;;;;13.10;10.00;;;;;;;7.61;84.20;97282.21;109683;1251;59757;-67
2022/04/27 00:18:27;;;;;;;12.90;10.90;;;;;;;7.62;83.64;97287.52;109592;1251;59688;-66
2022/04/27 00:20:56;;;;;;;;;;;;;;;7.63;82.96;97288.67;109590;1252;70954;-66
2022/04/27 00:23:26;;;;;;;15.20;10.80;;;;;;;7.63;84.63;97290.76;109634;1253;67833;-66
2022/04/27 00:25:57;;;;;;;13.70;10.20;;;;;;;7.61;84.17;97284.48;109528;1252;68913;-66
2022/04/27 00:28:28;;;;;;;12.70;10.50;;;;;;;7.59;84.03;97283.73;109724;1251;59786;-65
2022/04/27 00:30:59;;;;;;;13.10;10.60;;;;;;;7.58;83.63;97288.31;109549;1251;59636;-67
2022/04/27 00:33:30;;;;;;;14.00;10.60;;;;;;;7.58;81.78;97286.93;109673;1250;71550;-67
2022/04/27 00:35:59;;;;;;;17.90;13.80;;;;;;;7.58;82.66;97284.48;109574;1251;68065;-67
2022/04/27 00:38:30;;;;;;;15.20;13.20;;;;;;;7.58;84.87;97279.47;109723;1251;68531;-68
2022/04/27 00:40:59;;;;;;;12.00;10.40;;;;;;;7.57;84.18;97279.15;109539;1251;59667;-66
2022/04/27 00:43:37;;;;;;;15.30;13.60;;;;;;;7.58;81.91;97276.02;109696;1251;59716;-66
2022/04/27 00:46:09;;;;;;;16.80;12.20;;;;;;;7.57;84.03;97276.20;109603;1250;70940;-64
2022/04/27 00:48:40;;;;;;;14.10;11.90;;;;;;;7.58;85.15;97275.14;109547;1253;67882;-67
2022/04/27 00:51:16;;;;;;;15.70;11.60;;;;;;;7.58;84.98;97279.98;109641;1250;68571;-66
2022/04/27 00:53:48;;;;;;;10.40;8.10;;;;;;;7.59;84.15;97281.65;109766;1250;59701;-67
2022/04/27 00:56:21;;;;;;;14.30;10.80;;;;;;;7.62;81.55;97283.57;109799;1250;59682;-66
2022/04/27 00:58:51;;;;;;;15.80;12.40;;;;;;;7.64;82.96;97282.01;109771;1251;71989;-68
2022/04/27 01:01:21;;;;;;;13.90;10.50;;;;;;;7.67;82.06;97277.14;109500;1251;68607;-67
2022/04/27 01:03:53;;;;;;;17.60;13.90;;;;;;;7.71;81.66;97274.86;109481;1253;69410;-67
2022/04/27 01:06:23;;;;;;;15.90;12.10;;;;;;;7.70;82.50;97271.61;109653;1251;59760;-66
2022/04/27 01:08:53;;;;;;;;;;;;;;;7.69;82.97;97271.30;109862;1250;59690;-66
2022/04/27 01:11:24;;;;;;;17.10;12.70;;;;;;;7.71;84.43;97274.17;109544;1253;71296;-65
2022/04/27 01:13:56;;;;;;;13.20;10.50;;;;;;;7.71;83.97;97271.34;109444;1254;67630;-67
2022/04/27 01:16:26;;;;;;;13.20;10.20;;;;;;;7.72;83.48;97275.66;109736;1250;69418;-67
2022/04/27 01:18:57;;;;;;;11.70;9.70;;;;;;;7.71;84.25;97280.05;109499;1251;59726;-67
2022/04/27 01:21:28;;;;;;;9.80;8.60;;;;;;;7.69;83.55;97277.98;109634;1251;59696;-66
2022/04/27 01:24:05;;;;;;;13.00;10.20;;;;;;;7.66;83.08;97277.23;109461;1254;71229;-66
2022/04/27 01:26:37;;;;;;;13.40;11.20;;;;;;;7.61;83.45;97279.30;109597;1253;67874;-67
2022/04/27 01:29:07;;;;;;;13.50;10.00;;;;;;;7.52;83.14;97274.98;109578;1253;69255;-67
2022/04/27 01:31:39;;;;;;;14.10;10.80;;;;;;;7.46;83.49;97271.25;109502;1253;59696;-69
2022/04/27 01:34:09;;;;;;;;;;;;;;;7.38;82.90;97266.14;109600;1251;59658;-68
2022/04/27 01:36:40;;;;;;;18.50;12.50;;;;;;;7.30;83.83;97266.33;109818;1250;70858;-68
2022/04/27 01:39:10;;;;;;;15.20;12.40;;;;;;;7.11;84.68;97265.18;109638;1251;68530;-66
2022/04/27 01:41:40;;;;;;;11.90;10.50;;;;;;;6.98;84.34;97265.48;109564;1250;67647;-67
2022/04/27 01:44:09;;;;;;;;;;;;;;;6.88;84.58;97260.92;109809;1250;59757;-67
2022/04/27 01:46:40;;;;;;;10.00;8.20;;;;;;;6.80;84.94;97261.88;109585;1251;59745;-69
2022/04/27 01:49:10;;;;;;;12.50;9.20;;;;;;;6.75;86.40;97260.98;109655;1250;69867;-67
2022/04/27 01:54:30;;;;;;;9.40;7.50;;;;;;;6.65;86.48;97270.58;109590;1253;69431;-69
2022/04/27 01:57:00;;;;;;;9.10;8.00;;;;;;;6.61;86.96;97270.61;109855;1251;60167;-69
2022/04/27 01:59:30;;;;;;;8.40;6.90;;;;;;;6.59;86.97;97275.23;109580;1252;59755;-67
2022/04/27 02:02:01;;;;;;;10.70;9.10;;;;;;;6.58;86.46;97274.13;109380;1251;71421;-67
2022/04/27 02:04:32;;;;;;;8.80;7.70;;;;;;;6.58;87.34;97274.27;109611;1253;67860;-67
2022/04/27 02:07:04;;;;;;;9.10;8.10;;;;;;;6.57;87.17;97267.08;109631;1250;68666;-65
2022/04/27 02:09:34;;;;;;;7.80;7.00;;;;;;;6.54;86.58;97265.33;109647;1250;59721;-67
2022/04/27 02:12:08;;;;;;;13.00;10.20;;;;;;;6.52;86.93;97258.52;109583;1253;59778;-67
2022/04/27 02:14:38;;;;;;;15.10;12.40;;;;;;;6.50;85.50;97262.27;109560;1254;70797;-66
2022/04/27 02:17:09;;;;;;;11.00;9.30;;;;;;;6.47;85.11;97262.50;109522;1253;68598;-67
2022/04/27 02:19:41;;;;;;;13.50;11.50;;;;;;;6.46;85.54;97261.13;109492;1254;68340;-66
2022/04/27 02:22:11;;;;;;;13.40;10.70;;;;;;;6.46;88.55;97260.80;109537;1253;59817;-67
2022/04/27 02:24:42;;;;;;;;;;;;;;;6.45;88.35;97259.65;109528;1251;59699;-67
2022/04/27 02:27:11;;;;;;;;;;;;;;;6.45;88.12;97261.39;109600;1251;71397;-67
2022/04/27 02:29:43;;;;;;;10.00;8.80;;;;;;;6.45;88.05;97263.65;109533;1252;68570;-68
2022/04/27 02:32:20;;;;;;;10.10;8.50;;;;;;;6.46;88.05;97265.32;109789;1251;68676;-66
2022/04/27 02:34:51;;;;;;;10.30;9.10;;;;;;;6.47;87.49;97264.40;109578;1251;59733;-68
2022/04/27 02:37:21;;;;;;;12.10;10.10;;;;;;;6.50;88.82;97261.93;109617;1251;59745;-68
2022/04/27 02:39:58;;;;;;;10.10;8.90;;;;;;;6.52;87.76;97264.44;109845;1251;71530;-67
2022/04/27 02:42:29;;;;;;;10.50;8.40;;;;;;;6.56;87.75;97265.08;109593;1251;68577;-68
2022/04/27 02:44:59;;;;;;;10.30;8.20;;;;;;;6.59;88.47;97261.05;109792;1251;69287;-67
2022/04/27 02:47:30;;;;;;;9.20;7.20;;;;;;;6.64;87.54;97268.23;109563;1253;60130;-68
2022/04/27 02:52:57;;;;;;;11.40;9.70;;;;;;;6.75;88.95;97272.73;109516;1253;70781;-66
2022/04/27 02:55:37;;;;;;;12.00;9.90;;;;;;;6.79;88.70;97279.27;109587;1252;68458;-67
2022/04/27 02:58:07;;;;;;;;;;;;;;;6.81;88.00;97280.52;109523;1252;69442;-68
2022/04/27 03:00:37;;;;;;;16.20;11.10;;;;;;;6.82;88.10;97278.75;109595;1251;59791;-67
2022/04/27 03:03:09;;;;;;;13.50;9.80;;;;;;;6.83;88.41;97280.95;109588;1251;60094;-69
2022/04/27 03:05:40;;;;;;;12.70;9.50;;;;;;;6.82;86.32;97278.06;109469;1253;71553;-66
2022/04/27 03:08:11;;;;;;;9.70;7.20;;;;;;;6.81;85.85;97279.13;109710;1251;68677;-66
2022/04/27 03:10:49;;;;;;;9.40;7.40;;;;;;;6.82;84.53;97282.09;109486;1251;69482;-67
2022/04/27 03:13:20;;;;;;;15.30;11.50;;;;;;;6.77;85.88;97287.40;109525;1252;59829;-67
2022/04/27 03:15:52;;;;;;;13.60;11.90;;;;;;;6.70;86.43;97286.79;109674;1251;59774;-67
2022/04/27 03:18:23;;;;;;;16.40;10.70;;;;;;;6.62;87.21;97285.98;109533;1251;70868;-69
2022/04/27 03:20:52;;;;;;;18.10;12.00;;;;;;;6.56;86.97;97290.82;109614;1251;68601;-67
2022/04/27 03:23:23;;;;;;;17.60;12.40;;;;;;;6.52;86.13;97293.70;109533;1253;69535;-69
2022/04/27 03:25:55;;;;;;;25.30;14.80;;;;;;;6.47;85.34;97296.25;109629;1251;59745;-69
2022/04/27 03:28:25;;;;;;;19.30;12.10;;;;;;;6.43;86.65;97298.53;109497;1253;59663;-67
2022/04/27 03:30:55;;;;;;;17.80;11.90;;;;;;;6.42;87.67;97308.64;109414;1253;70384;-68
2022/04/27 03:33:46;;;;;;;18.10;12.50;;;;;;;6.41;87.83;97313.90;109730;1250;68058;-67
2022/04/27 03:36:16;;;;;;;24.40;14.90;;;;;;;6.43;88.07;97321.39;109578;1251;69318;-68
2022/04/27 03:38:48;;;;;;;22.80;14.20;;;;;;;6.48;88.93;97326.65;109581;1251;59753;-66
2022/04/27 03:41:20;;;;;;;17.80;12.30;;;;;;;6.57;88.86;97330.27;109792;1251;59618;-65
2022/04/27 03:43:50;;;;;;;16.90;12.40;;;;;;;6.64;88.63;97337.11;109578;1251;70626;-67
2022/04/27 03:46:21;;;;;;;17.30;11.90;;;;;;;6.74;88.31;97344.89;109517;1252;67662;-68
2022/04/27 03:49:11;;;;;;;;;;;;;;;6.84;88.27;97339.77;109829;1251;68314;-68
2022/04/27 03:51:41;;;;;;;13.80;9.40;;;;;;;6.92;88.10;97339.14;109601;1250;59760;-69
2022/04/27 03:54:11;;;;;;;9.70;6.90;;;;;;;7.01;87.37;97340.36;109530;1253;59698;-67
2022/04/27 03:56:40;;;;;;;10.90;8.20;;;;;;;7.12;86.88;97340.36;109653;1251;71425;-68
2022/04/27 03:59:11;;;;;;;13.00;9.50;;;;;;;7.25;86.52;97343.27;109610;1251;68464;-67
2022/04/27 04:01:41;;;;;;;19.30;10.90;;;;;;;7.33;86.48;97349.46;109688;1251;68776;-67
2022/04/27 04:04:12;;;;;;;16.30;11.30;;;;;;;7.37;85.88;97358.07;109610;1251;59756;-67
2022/04/27 04:06:42;;;;;;;22.60;15.50;;;;;;;7.25;85.19;97362.81;109555;1251;59659;-66
2022/04/27 04:09:12;;;;;;;20.70;13.20;;;;;;;7.19;84.94;97362.84;109548;1253;70554;-64
2022/04/27 04:11:43;;;;;;;18.90;11.40;;;;;;;7.18;84.70;97365.02;109512;1250;68599;-67
2022/04/27 04:14:32;;;;;;;17.50;11.80;;;;;;;7.20;84.98;97366.05;109885;1250;69412;-66
2022/04/27 04:17:23;;;;;;;16.00;12.00;;;;;;;7.25;84.79;97366.27;109763;1250;59646;-67
2022/04/27 04:20:07;;;;;;;26.20;15.00;;;;;;;7.33;84.85;97371.86;109801;1251;59722;-67
2022/04/27 04:23:05;;;;;;;16.70;11.10;;;;;;;7.44;84.68;97369.64;109206;1253;72391;-65
2022/04/27 04:28:32;;;;;;;11.90;9.70;;;;;;;7.61;84.58;97368.77;109608;1250;69511;-65
2022/04/27 04:31:05;;;;;;;12.10;8.10;;;;;;;7.69;84.30;97370.36;109811;1250;60107;-66
2022/04/27 04:33:52;;;;;;;14.00;9.80;;;;;;;7.74;83.68;97366.92;109734;1251;59721;-67
2022/04/27 04:36:22;;;;;;;8.10;6.70;;;;;;;7.82;83.36;97367.98;109516;1252;71570;-66
2022/04/27 04:38:52;;;;;;;9.40;5.80;;;;;;;7.99;83.23;97365.38;109451;1251;68460;-65
2022/04/27 04:41:26;;;;;;;7.50;6.20;;;;;;;8.27;82.80;97371.04;109703;1251;69101;-68
2022/04/27 04:43:58;;;;;;;8.80;5.80;;;;;;;8.62;83.05;97374.37;109721;1251;59741;-65
2022/04/27 04:46:31;;;;;;;6.80;4.70;;;;;;;9.04;83.09;97379.93;109554;1253;59694;-65
2022/04/27 04:49:08;;;;;;;9.40;5.70;;;;;;;9.53;82.53;97381.63;109612;1253;72274;-66
2022/04/27 04:51:37;;;;;;;10.00;6.70;;;;;;;10.00;81.29;97383.55;109518;1252;67866;-67
2022/04/27 04:54:25;;;;;;;7.30;6.00;;;;;;;10.46;77.48;97379.08;109518;1251;68491;-68
2022/04/27 04:57:21;;;;;;;7.00;6.30;;;;;;;10.91;78.66;97384.48;109538;1251;59718;-66
2022/04/27 04:59:59;;;;;;;7.40;6.00;;;;;;;11.34;76.75;97383.98;109537;1252;59756;-65
2022/04/27 05:03:01;;;;;;;5.50;4.20;;;;;;;11.69;71.62;97383.62;109420;1251;70772;-66
2022/04/27 05:05:51;;;;;;;4.90;4.20;;;;;;;11.92;69.47;97387.56;109717;1251;68050;-67
2022/04/27 05:08:59;;;;;;;6.10;4.50;;;;;;;12.12;68.21;97383.21;109411;1253;69264;-64
2022/04/27 05:11:55;;;;;;;5.60;4.70;;;;;;;12.44;68.91;97388.56;109704;1251;59795;-66
2022/04/27 05:14:44;;;;;;;5.90;3.90;;;;;;;12.75;66.94;97384.54;109498;1251;59778;-66
2022/04/27 05:17:25;;;;;;;4.40;3.70;;;;;;;13.03;63.84;97384.39;109447;1254;72287;-65
2022/04/27 05:20:32;;;;;;;6.30;4.60;;;;;;;13.45;64.24;97392.09;109299;1256;68760;-66
2022/04/27 05:23:24;;;;;;;4.20;3.70;;;;;;;13.73;61.82;97391.40;108981;1257;68992;-68
2022/04/27 05:26:21;;;;;;;5.00;4.10;;;;;;;14.14;61.16;97392.27;109421;1254;59794;-66
2022/04/27 05:32:00;;;;;;;7.50;4.90;;;;;;;14.25;59.09;97384.66;109588;1251;70940;-67
2022/04/27 05:34:52;;;;;;;4.90;3.90;;;;;;;14.17;59.19;97383.79;109299;1252;68123;-66
2022/04/27 05:37:37;;;;;;;4.70;4.10;;;;;;;14.08;59.80;97383.19;109558;1251;68887;-68
2022/04/27 05:40:07;;;;;;;5.80;4.60;;;;;;;14.06;59.45;97389.77;109587;1253;59781;-68
2022/04/27 05:42:52;;;;;;;5.20;4.10;;;;;;;13.94;59.91;97396.45;109555;1251;59657;-67
2022/04/27 05:45:40;;;;;;;5.20;4.60;;;;;;;14.03;60.03;97397.47;109651;1251;70787;-67
2022/04/27 05:48:30;;;;;;;4.70;4.10;;;;;;;14.07;59.35;97403.73;109214;1253;68735;-66
2022/04/27 05:51:06;;;;;;;5.50;4.20;;;;;;;14.07;59.65;97401.77;109609;1251;70124;-66
2022/04/27 05:53:50;;;;;;;5.10;4.50;;;;;;;14.26;59.22;97401.23;109505;1254;60241;-67
2022/04/27 05:56:38;;;;;;;5.00;3.90;;;;;;;14.34;59.27;97401.58;109634;1251;59695;-66
2022/04/27 05:59:40;;;;;;;5.10;4.10;;;;;;;14.67;57.74;97404.84;109666;1251;71566;-69
2022/04/27 06:02:28;;;;;;;4.20;3.40;;;;;;;14.96;56.63;97409.00;109495;1253;68635;-68
2022/04/27 06:04:58;;;;;;;4.80;3.90;;;;;;;14.99;56.64;97407.89;109574;1253;68729;-69
2022/04/27 06:07:28;;;;;;;3.90;3.50;;;;;;;15.10;56.12;97412.48;109489;1251;59704;-66
2022/04/27 06:09:59;;;;;;;3.90;3.50;;;;;;;15.38;56.11;97414.81;109645;1251;59689;-66
2022/04/27 06:12:42;;;;;;;5.20;4.00;;;;;;;15.69;55.71;97419.00;109776;1251;72180;-67
2022/04/27 06:15:30;;;;;;;4.40;3.60;;;;;;;16.31;54.83;97419.64;109613;1251;68516;-68
2022/04/27 06:18:00;;;;;;;5.70;3.30;;;;;;;16.82;53.70;97423.14;109690;1251;67696;-67
2022/04/27 06:20:30;;;;;;;4.80;3.00;;;;;;;17.18;51.31;97426.42;109494;1254;59699;-69
2022/04/27 06:22:59;;;;;;;4.80;4.00;;;;;;;17.52;51.20;97430.14;109546;1253;60082;-67
2022/04/27 06:25:30;;;;;;;4.50;3.90;;;;;;;17.67;50.47;97428.41;109615;1252;71970;-66
2022/04/27 06:28:05;;;;;;;4.70;3.70;;;;;;;17.78;49.45;97428.70;109627;1251;67840;-65
2022/04/27 06:30:35;;;;;;;6.50;4.60;;;;;;;17.85;49.25;97426.58;109544;1253;69466;-66
2022/04/27 06:33:05;;;;;;;5.40;3.70;;;;;;;18.06;49.25;97427.26;109637;1251;60215;-67
2022/04/27 06:35:34;;;;;;;3.90;3.40;;;;;;;18.17;49.68;97428.96;109599;1252;59745;-66
2022/04/27 06:38:11;;;;;;;4.00;3.60;;;;;;;18.35;49.57;97428.81;109559;1251;70687;-67
2022/04/27 06:41:06;;;;;;;4.60;3.50;;;;;;;18.48;49.33;97429.59;109609;1251;68848;-66
2022/04/27 06:43:56;;;;;;;5.00;3.60;;;;;;;18.46;49.18;97425.02;109732;1249;68609;-67
2022/04/27 06:46:43;;;;;;;5.40;3.20;;;;;;;18.67;48.32;97418.96;109752;1250;59746;-67
2022/04/27 06:49:51;;;;;;;5.90;3.60;;;;;;;19.00;48.25;97419.36;109491;1256;59719;-66
2022/04/27 06:52:59;;;;;;;4.20;3.50;;;;;;;19.06;47.21;97418.41;108760;1261;70794;-68
2022/04/27 06:55:51;;;;;;;3.60;3.20;;;;;;;19.03;46.51;97420.09;109089;1255;67584;-66
2022/04/27 06:58:46;;;;;;;5.10;3.60;;;;;;;19.18;46.42;97419.48;109447;1251;69081;-65
2022/04/27 07:01:23;;;;;;;3.70;3.20;;;;;;;19.42;45.89;97425.59;109736;1250;60062;-68
2022/04/27 07:04:05;;;;;;;5.30;4.40;;;;;;;19.55;44.79;97420.95;109601;1250;59692;-64
2022/04/27 07:06:36;;;;;;;4.10;2.80;;;;;;;19.71;44.61;97422.74;109414;1250;71465;-67
2022/04/27 07:09:11;;;;;;;3.30;2.80;;;;;;;20.13;42.44;97425.23;109854;1250;68555;-67
2022/04/27 07:11:40;;;;;;;4.00;3.20;;;;;;;20.46;42.97;97426.14;109864;1250;68652;-67
2022/04/27 07:14:10;;;;;;;;;;;;;;;20.49;40.46;97422.06;109793;1250;59754;-66
2022/04/27 07:16:39;;;;;;;;;;;;;;;20.34;41.65;97423.72;109850;1251;59707;-67
2022/04/27 07:19:08;;;;;;;4.40;3.00;;;;;;;19.98;42.50;97419.79;109680;1250;71155;-67
2022/04/27 07:21:39;;;;;;;3.50;2.70;;;;;;;20.07;42.19;97424.41;109937;1250;68539;-66
2022/04/27 07:24:09;;;;;;;4.00;2.80;;;;;;;20.11;41.83;97425.30;109732;1250;68473;-66
2022/04/27 07:26:38;;;;;;;4.10;2.40;;;;;;;20.39;41.87;97426.72;109452;1253;59758;-67
2022/04/27 07:29:08;;;;;;;3.50;2.80;;;;;;;20.89;41.00;97425.27;109809;1249;59767;-66
2022/04/27 07:31:37;;;;;;;3.20;2.80;;;;;;;21.35;41.17;97426.75;109700;1250;70742;-66
2022/04/27 07:34:06;;;;;;;3.20;2.40;;;;;;;21.68;39.86;97429.91;109601;1250;68183;-67
2022/04/27 07:36:36;;;;;;;4.00;3.00;;;;;;;22.09;39.42;97430.58;109663;1251;69422;-66
2022/04/27 07:39:06;;;;;;;3.40;2.60;;;;;;;22.32;38.15;97438.23;109803;1249;59694;-67
2022/04/27 07:41:35;;;;;;;3.30;2.40;;;;;;;22.77;38.33;97438.90;109723;1250;59700;-66
2022/04/27 07:44:06;;;;;;;;;;;;;;;23.01;36.06;97428.16;109517;1250;70816;-66
2022/04/27 07:46:35;;;;;;;2.90;2.20;;;;;;;23.11;36.63;97429.00;109556;1251;68226;-68
2022/04/27 07:49:04;;;;;;;;;;;;;;;22.97;36.63;97426.84;109558;1250;69456;-67
2022/04/27 07:51:33;;;;;;;4.50;2.50;;;;;;;23.28;36.08;97425.09;109710;1251;60107;-67
2022/04/27 07:54:02;;;;;;;;;;;;;;;23.03;35.84;97421.98;109597;1251;59757;-64
2022/04/27 07:56:32;;;;;;;3.30;2.20;;;;;;;23.18;36.01;97424.39;109584;1252;70993;-65
2022/04/27 07:59:01;;;;;;;2.60;2.00;;;;;;;23.34;35.24;97421.66;109809;1251;67824;-66
2022/04/27 08:01:30;;;;;;;3.80;2.40;;;;;;;23.96;35.09;97425.45;109463;1253;68921;-67
2022/04/27 08:03:59;;;;;;;3.60;2.20;;;;;;;23.86;34.00;97425.42;109775;1251;59797;-67
2022/04/27 08:06:28;;;;;;;3.00;1.80;;;;;;;23.47;34.40;97427.84;109638;1252;59764;-66
2022/04/27 08:08:57;;;;;;;;;;;;;;;22.85;35.91;97427.39;109886;1251;70813;-66
2022/04/27 08:11:26;;;;;;;3.20;1.60;;;;;;;22.77;35.49;97425.63;109734;1250;68822;-66
2022/04/27 08:13:55;;;;;;;2.70;2.30;;;;;;;22.79;35.13;97422.77;109692;1252;69408;-67
2022/04/27 08:16:24;;;;;;;2.80;1.90;;;;;;;22.47;34.88;97419.77;109893;1251;59747;-66
2022/04/27 08:18:53;;;;;;;2.40;2.10;;;;;;;22.78;35.60;97421.79;109902;1250;59692;-68
2022/04/27 08:21:27;;;;;;;2.80;1.70;;;;;;;23.01;34.91;97417.28;109911;1250;72291;-66
2022/04/27 08:23:55;;;;;;;2.80;2.10;;;;;;;23.67;34.10;97416.25;109865;1250;67857;-67
2022/04/27 08:26:24;;;;;;;2.70;2.10;;;;;;;23.55;34.20;97419.72;109769;1250;68451;-67
2022/04/27 08:28:54;;;;;;;2.70;2.00;;;;;;;23.76;33.96;97419.84;109742;1251;59733;-67
2022/04/27 08:31:22;;;;;;;2.30;2.10;;;;;;;23.28;33.20;97418.52;109639;1251;59701;-67
2022/04/27 08:33:52;;;;;;;;;;;;;;;22.87;33.80;97418.08;109607;1251;71620;-68
2022/04/27 08:36:20;;;;;;;2.80;2.20;;;;;;;22.31;35.28;97421.12;109700;1252;68013;-67
2022/04/27 08:39:03;;;;;;;3.40;2.10;;;;;;;22.50;34.65;97419.44;109900;1250;68832;-67
2022/04/27 08:41:33;;;;;;;2.30;1.90;;;;;;;22.11;35.38;97415.38;109507;1253;59714;-67
2022/04/27 08:44:07;;;;;;;3.30;1.80;;;;;;;22.43;35.05;97415.34;109856;1250;59706;-76
2022/04/27 08:46:37;;;;;;;2.30;1.70;;;;;;;23.21;34.67;97405.70;109769;1251;70798;-66
2022/04/27 08:49:09;;;;;;;3.30;2.00;;;;;;;23.93;33.84;97409.08;109748;1250;67859;-66
2022/04/27 08:51:39;;;;;;;4.20;2.10;;;;;;;24.57;33.46;97407.23;109605;1252;68717;-66
2022/04/27 08:54:11;;;;;;;5.20;2.50;;;;;;;24.50;32.55;97409.40;109761;1249;59689;-66
2022/04/27 08:56:40;;;;;;;2.80;2.10;;;;;;;23.78;32.02;97406.44;109750;1251;59685;-67
2022/04/27 08:59:10;;;;;;;3.20;1.90;;;;;;;23.47;33.44;97404.45;109720;1252;71812;-67
2022/04/27 09:01:39;;;;;;;;;;;;;;;23.52;34.06;97405.15;109750;1251;68626;-67
2022/04/27 09:04:14;;;;;;;2.30;1.80;;;;;;;23.62;33.89;97406.45;109444;1251;548599;-65
2022/04/27 09:06:45;;;;;;;3.60;2.10;;;;;;;23.31;33.92;97397.92;109539;1251;59713;-66
2022/04/27 09:09:36;;;;;;;2.40;1.90;;;;;;;23.35;33.56;97396.14;109681;1250;59719;-66
2022/04/27 09:12:14;;;;;;;2.20;1.80;;;;;;;23.30;33.93;97393.52;109656;1250;72380;-65
2022/04/27 09:14:44;;;;;;;2.20;1.70;;;;;;;23.20;34.51;97394.85;109842;1250;68718;-66
2022/04/27 09:23:37;;;;;;;2.50;1.80;;;;;;;25.33;31.87;97395.74;109896;1250;59670;-67
2022/04/27 09:26:22;;;;;;;4.00;1.90;;;;;;;25.61;30.69;97394.29;109930;1250;71691;-66
2022/04/27 09:28:55;;;;;;;1.80;1.60;;;;;;;25.16;31.00;97392.31;109893;1250;67937;-67
2022/04/27 09:31:34;;;;;;;2.90;2.10;;;;;;;24.92;31.83;97387.85;109815;1250;68082;-64
2022/04/27 09:36:59;;;;;;;;;;;;;;;24.87;30.57;97385.51;109870;1250;59678;-68
2022/04/27 09:39:29;;;;;;;3.00;2.30;;;;;;;24.79;31.14;97383.79;110018;1250;70566;-67
2022/04/27 09:42:06;;;;;;;2.80;2.10;;;;;;;24.69;31.09;97382.69;109773;1250;68883;-67
2022/04/27 09:44:37;;;;;;;2.10;1.70;;;;;;;25.21;31.29;97380.81;109816;1250;68661;-68
2022/04/27 09:47:08;;;;;;;3.50;2.20;;;;;;;25.94;30.66;97380.65;109596;1252;59702;-66
2022/04/27 09:49:42;;;;;;;2.50;1.80;;;;;;;26.54;29.10;97384.58;109637;1252;59762;-68
2022/04/27 09:52:15;;;;;;;2.90;2.20;;;;;;;26.74;28.44;97377.27;109706;1253;70824;-67
2022/04/27 09:54:45;;;;;;;4.60;2.30;;;;;;;26.81;28.76;97379.56;109686;1252;67823;-67
2022/04/27 09:57:16;;;;;;;2.60;2.10;;;;;;;25.69;30.11;97378.43;109692;1252;68747;-67
2022/04/27 09:59:47;;;;;;;2.50;2.20;;;;;;;24.82;31.81;97385.86;109927;1251;59697;-66
2022/04/27 10:02:27;;;;;;;2.60;1.80;;;;;;;24.35;32.10;97382.85;109525;1252;59720;-66
2022/04/27 10:04:59;;;;;;;3.30;2.00;;;;;;;24.58;33.08;97372.91;109595;1252;71380;-66
2022/04/27 10:07:32;;;;;;;3.90;2.00;;;;;;;24.78;32.22;97380.95;109622;1250;67834;-67
2022/04/27 10:10:03;;;;;;;4.10;3.20;;;;;;;24.04;33.37;97387.13;109703;1253;68659;-66
2022/04/27 10:12:37;;;;;;;2.60;2.20;;;;;;;23.54;33.67;97389.33;109725;1251;59771;-65
2022/04/27 10:15:07;;;;;;;4.00;2.80;;;;;;;22.96;35.12;97391.27;109778;1252;59777;-65
2022/04/27 10:17:36;;;;;;;3.00;2.70;;;;;;;21.58;36.96;97398.91;109656;1252;70941;-65
2022/04/27 10:20:25;;;;;;;;;;;;;;;21.08;38.82;97402.33;109676;1251;68582;-66
2022/04/27 10:23:12;;;;;;;;;;;;;;;20.55;39.05;97413.38;109952;1250;69436;-66
2022/04/27 10:26:03;;;;;;;3.00;2.30;;;;;;;19.64;40.65;97417.69;109733;1251;59767;-65
2022/04/27 10:28:35;;;;;;;;;;;;;;;18.85;42.34;97424.30;109928;1250;59706;-67
2022/04/27 10:31:07;;;;;;;3.80;2.40;;;;;;;18.63;43.17;97428.22;109942;1250;71563;-68
2022/04/27 10:33:50;;;;;;;3.10;2.70;;;;;;;18.34;43.73;97435.69;109734;1250;67995;-67
2022/04/27 10:36:21;;;;;;;3.00;2.70;;;;;;;17.85;45.93;97436.86;109966;1250;68939;-65
2022/04/27 10:39:12;;;;;;;3.70;3.40;;;;;;;17.83;47.06;97438.31;109763;1250;59671;-67
2022/04/27 10:42:03;;;;;;;3.50;2.60;;;;;;;17.62;48.42;97440.93;109599;1250;59753;-66
2022/04/27 10:44:48;;;;;;;4.10;3.50;;;;;;;17.66;48.35;97441.77;109420;1250;71795;-66
2022/04/27 10:47:19;;;;;;;3.90;3.50;;;;;;;17.48;49.43;97445.62;109853;1250;68593;-66
2022/04/27 10:50:09;;;;;;;4.50;3.90;;;;;;;17.35;50.26;97444.55;109798;1250;69526;-65
2022/04/27 10:52:53;;;;;;;4.40;4.00;;;;;;;17.02;51.74;97455.00;109851;1250;59680;-68
2022/04/27 10:55:43;;;;;;;4.90;3.90;;;;;;;16.69;53.32;97459.10;109905;1250;59699;-66
2022/04/27 10:58:32;;;;;;;5.00;4.30;;;;;;;16.55;54.47;97456.01;109771;1250;71533;-67
2022/04/27 11:01:11;;;;;;;5.10;3.80;;;;;;;16.48;54.51;97463.20;109861;1250;69057;-65
2022/04/27 11:03:41;;;;;;;6.30;3.70;;;;;;;16.28;55.27;97464.06;109849;1250;68740;-67
2022/04/27 11:06:13;;;;;;;5.30;3.80;;;;;;;16.23;55.58;97469.10;109694;1250;59806;-68
2022/04/27 11:09:18;;;;;;;7.10;4.10;;;;;;;16.10;55.66;97468.43;109877;1250;59700;-68
2022/04/27 11:11:55;;;;;;;6.10;4.40;;;;;;;15.85;57.08;97476.08;109747;1250;71106;-66
2022/04/27 11:14:28;;;;;;;;;;;;;;;15.65;58.50;97478.50;109723;1250;67982;-66
2022/04/27 11:16:57;;;;;;;6.20;4.50;;;;;;;15.45;60.62;97478.63;109527;1253;68509;-67
2022/04/27 11:19:40;;;;;;;7.50;5.20;;;;;;;15.25;61.75;97482.58;109733;1251;59774;-66
2022/04/27 11:22:14;;;;;;;7.30;4.90;;;;;;;15.08;62.74;97481.27;109783;1250;59639;-67
2022/04/27 11:24:48;;;;;;;7.50;5.60;;;;;;;15.02;64.19;97480.96;109431;1253;71717;-67
2022/04/27 11:27:26;;;;;;;7.50;5.30;;;;;;;15.09;64.60;97474.87;109689;1251;68560;-64
2022/04/27 11:29:57;;;;;;;5.30;4.80;;;;;;;15.17;64.06;97468.39;109739;1250;69410;-66
2022/04/27 11:32:28;;;;;;;6.50;5.20;;;;;;;15.19;63.79;97461.64;109782;1251;59743;-67
2022/04/27 11:34:57;;;;;;;6.40;4.70;;;;;;;15.44;62.53;97453.95;109637;1250;59788;-67
2022/04/27 11:37:26;;;;;;;5.80;4.80;;;;;;;15.64;62.93;97451.08;109851;1250;71481;-69
2022/04/27 11:40:17;;;;;;;5.90;5.10;;;;;;;15.86;61.78;97447.96;109811;1250;67856;-67
2022/04/27 11:42:48;;;;;;;6.60;5.20;;;;;;;16.12;60.79;97444.64;109661;1250;68945;-67
2022/04/27 11:45:21;;;;;;;5.70;4.40;;;;;;;16.15;60.19;97439.96;109792;1250;59696;-68
2022/04/27 11:48:03;;;;;;;6.10;5.00;;;;;;;16.11;59.61;97440.70;109745;1248;59699;-68
2022/04/27 11:50:34;;;;;;;5.60;5.00;;;;;;;16.15;59.65;97439.27;109589;1252;70778;-67
2022/04/27 11:53:07;;;;;;;6.00;5.40;;;;;;;16.10;60.22;97437.79;109598;1252;68464;-66
2022/04/27 11:55:36;;;;;;;6.30;5.40;;;;;;;16.18;61.06;97435.14;109536;1252;68835;-66
2022/04/27 11:58:07;;;;;;;7.00;4.60;;;;;;;16.22;60.16;97438.60;109621;1252;59690;-67
2022/04/27 12:00:37;;;;;;;6.60;4.40;;;;;;;16.24;60.59;97433.84;109884;1250;59636;-66
2022/04/27 12:03:07;;;;;;;5.70;4.90;;;;;;;16.42;60.45;97428.39;109796;1250;70284;-66
2022/04/27 12:05:38;;;;;;;7.10;6.40;;;;;;;16.45;59.96;97424.27;109644;1251;68098;-67
2022/04/27 12:08:11;;;;;;;7.90;6.60;;;;;;;16.38;60.33;97426.00;109763;1253;68655;-69
2022/04/27 12:10:45;;;;;;;6.90;6.20;;;;;;;16.36;60.76;97420.77;109711;1252;59764;-67
2022/04/27 12:13:16;;;;;;;6.20;4.10;;;;;;;16.33;61.66;97419.46;109606;1250;59796;-68
2022/04/27 12:15:49;;;;;;;5.20;3.80;;;;;;;16.44;59.43;97418.08;109531;1253;72146;-67
2022/04/27 12:18:22;;;;;;;5.00;4.10;;;;;;;16.42;58.90;97420.83;109799;1250;68711;-68
2022/04/27 12:20:55;;;;;;;4.80;3.60;;;;;;;16.59;58.80;97423.96;109950;1251;69512;-67
2022/04/27 12:23:43;;;;;;;7.10;6.00;;;;;;;16.47;59.88;97430.41;109671;1250;60180;-69
2022/04/27 12:26:18;;;;;;;6.80;5.90;;;;;;;16.19;60.43;97439.25;109809;1253;59695;-68